Time;durP1;ratioP1;P1;durP2;ratioP2;P2;SDS_P1;SDS_P2;PMS_P1;PMS_P2;Temp;Humidity;BMP_temperature;BMP_pressure;BME280_temperature;BME280_humidity;BME280_pressure;Samples;Min_cycle;Max_cycle;Signal;HPM_P1;HPM_P2
2023/07/07 00:00:29;;;;;;;;;;;;;;;;;;4993028;28;19940;-63
2023/07/07 00:02:55;;;;;;;;;;;;;;;;;;5012156;28;19985;-62
2023/07/07 00:05:21;;;;;;;;;;;;;;;;;;5011244;28;19929;-63
2023/07/07 00:07:48;;;;;;;;;;;;;;;;;;5011848;28;19941;-62
2023/07/07 00:10:14;;;;;;;;;;;;;;;;;;5011333;28;19920;-63
2023/07/07 00:12:40;;;;;;;;;;;;;;;;;;5026515;28;19917;-63
2023/07/07 00:15:06;;;;;;;;;;;;;;;;;;5026062;28;20496;-63
2023/07/07 00:17:32;;;;;;;;;;;;;;;;;;5012338;28;19921;-63
2023/07/07 00:20:03;;;;;;;;;;;;;;;;;;5010979;28;19914;-62
2023/07/07 00:22:31;;;;;;;;;;;;;;;;;;5009448;28;19980;-63
2023/07/07 00:24:57;;;;;;;;;;;;;;;;;;5010794;28;19917;-63
2023/07/07 00:27:23;;;;;;;;;;;;;;;;;;5013011;28;20507;-63
2023/07/07 00:29:49;;;;;;;;;;;;;;;;;;5014954;28;19960;-63
2023/07/07 00:32:15;;;;;;;;;;;;;;;;;;5015564;28;19917;-63
2023/07/07 00:34:41;;;;;;;;;;;;;;;;;;5014480;28;20004;-63
2023/07/07 00:37:07;;;;;;;;;;;;;;;;;;5014083;28;20004;-63
2023/07/07 00:39:33;;;;;;;;;;;;;;;;;;5011340;28;20491;-63
2023/07/07 00:41:59;;;;;;;;;;;;;;;;;;5015336;28;19914;-63
2023/07/07 00:44:25;;;;;;;;;;;;;;;;;;5015662;28;19913;-62
2023/07/07 00:46:51;;;;;;;;;;;;;;;;;;5015847;28;19914;-62
2023/07/07 00:49:17;;;;;;;;;;;;;;;;;;5015464;28;19917;-62
2023/07/07 00:51:43;;;;;;;;;;;;;;;;;;5014682;28;19918;-62
2023/07/07 00:54:08;;;;;;;;;;;;;;;;;;5011155;28;19939;-62
2023/07/07 00:56:34;;;;;;;;;;;;;;;;;;5012672;28;19964;-62
2023/07/07 00:59:00;;;;;;;;;;;;;;;;;;5016397;28;19917;-62
2023/07/07 01:01:26;;;;;;;;;;;;;;;;;;5004236;28;19910;-63
2023/07/07 01:03:52;;;;;;;;;;;;;;;;;;5033047;28;20280;-63
2023/07/07 01:06:18;;;;;;;;;;;;;;;;;;5042592;28;19913;-62
2023/07/07 01:08:44;;;;;;;;;;;;;;;;;;5014449;28;20000;-63
2023/07/07 01:11:10;;;;;;;;;;;;;;;;;;5012933;28;19948;-62
2023/07/07 01:13:36;;;;;;;;;;;;;;;;;;5027594;28;19917;-63
2023/07/07 01:16:02;;;;;;;;;;;;;;;;;;5019923;28;20007;-62
2023/07/07 01:18:27;;;;;;;;;;;;;;;;;;5012677;28;20374;-63
2023/07/07 01:21:01;;;;;;;;;;;;;;;;;;5013100;28;19975;-63
2023/07/07 01:23:27;;;;;;;;;;;;;;;;;;5005689;28;19921;-63
2023/07/07 01:25:55;;;;;;;;;;;;;;;;;;5029345;28;19949;-63
2023/07/07 01:28:21;;;;;;;;;;;;;;;;;;5017285;28;19913;-63
2023/07/07 01:30:47;;;;;;;;;;;;;;;;;;4982193;28;19941;-63
2023/07/07 01:33:13;;;;;;;;;;;;;;;;;;5012657;28;19921;-63
2023/07/07 01:35:38;;;;;;;;;;;;;;;;;;5012235;28;19936;-63
2023/07/07 01:38:04;;;;;;;;;;;;;;;;;;5007705;28;19965;-63
2023/07/07 01:40:30;;;;;;;;;;;;;;;;;;5011173;28;19968;-63
2023/07/07 01:42:56;;;;;;;;;;;;;;;;;;5012981;28;19945;-63
2023/07/07 01:45:22;;;;;;;;;;;;;;;;;;5013399;28;19917;-63
2023/07/07 01:47:48;;;;;;;;;;;;;;;;;;5010895;28;19922;-63
2023/07/07 01:50:14;;;;;;;;;;;;;;;;;;5013021;28;19929;-62
2023/07/07 01:52:40;;;;;;;;;;;;;;;;;;5010805;28;19929;-63
2023/07/07 01:55:06;;;;;;;;;;;;;;;;;;5010901;28;20344;-63
2023/07/07 01:57:32;;;;;;;;;;;;;;;;;;5008673;28;19918;-63
2023/07/07 01:59:57;;;;;;;;;;;;;;;;;;5011156;28;19973;-63
2023/07/07 02:02:23;;;;;;;;;;;;;;;;;;5009740;28;20012;-63
2023/07/07 02:04:49;;;;;;;;;;;;;;;;;;5009653;28;19917;-62
2023/07/07 02:07:15;;;;;;;;;;;;;;;;;;5012687;28;20428;-62
2023/07/07 02:09:41;;;;;;;;;;;;;;;;;;5010073;28;19917;-62
2023/07/07 02:12:07;;;;;;;;;;;;;;;;;;5011667;28;20344;-63
2023/07/07 02:14:33;;;;;;;;;;;;;;;;;;5010356;28;19920;-63
2023/07/07 02:16:59;;;;;;;;;;;;;;;;;;5009893;28;19948;-63
2023/07/07 02:19:24;;;;;;;;;;;;;;;;;;5010971;28;19921;-63
2023/07/07 02:21:50;;;;;;;;;;;;;;;;;;5010077;28;19928;-63
2023/07/07 02:24:16;;;;;;;;;;;;;;;;;;5012246;28;20441;-62
2023/07/07 02:26:42;;;;;;;;;;;;;;;;;;4995347;28;19914;-63
2023/07/07 02:29:08;;;;;;;;;;;;;;;;;;5023796;28;20270;-63
2023/07/07 02:31:34;;;;;;;;;;;;;;;;;;5008682;28;19924;-63
2023/07/07 02:34:00;;;;;;;;;;;;;;;;;;5008859;28;19929;-63
2023/07/07 02:36:26;;;;;;;;;;;;;;;;;;5011007;28;20282;-63
2023/07/07 02:38:55;;;;;;;;;;;;;;;;;;5012052;28;19914;-63
2023/07/07 02:41:21;;;;;;;;;;;;;;;;;;5011688;28;19977;-63
2023/07/07 02:43:47;;;;;;;;;;;;;;;;;;5010103;28;20324;-63
2023/07/07 02:46:12;;;;;;;;;;;;;;;;;;5008826;28;19983;-63
2023/07/07 02:48:38;;;;;;;;;;;;;;;;;;5009463;28;19996;-63
2023/07/07 02:51:04;;;;;;;;;;;;;;;;;;5025927;28;19914;-63
2023/07/07 02:53:30;;;;;;;;;;;;;;;;;;5010157;28;20278;-63
2023/07/07 02:55:56;;;;;;;;;;;;;;;;;;5034174;28;19939;-63
2023/07/07 02:58:22;;;;;;;;;;;;;;;;;;5024531;28;19917;-63
2023/07/07 03:00:48;;;;;;;;;;;;;;;;;;5008911;28;20048;-63
2023/07/07 03:03:14;;;;;;;;;;;;;;;;;;5010982;28;19914;-63
2023/07/07 03:05:40;;;;;;;;;;;;;;;;;;5008291;28;20173;-63
2023/07/07 03:08:06;;;;;;;;;;;;;;;;;;5010229;28;20277;-63
2023/07/07 03:10:31;;;;;;;;;;;;;;;;;;5006291;28;19921;-63
2023/07/07 03:12:57;;;;;;;;;;;;;;;;;;5010156;28;19913;-63
2023/07/07 03:15:23;;;;;;;;;;;;;;;;;;5014476;28;20399;-63
2023/07/07 03:17:49;;;;;;;;;;;;;;;;;;5012298;28;19925;-63
2023/07/07 03:20:15;;;;;;;;;;;;;;;;;;5001723;28;20003;-63
2023/07/07 03:22:41;;;;;;;;;;;;;;;;;;5010519;28;19914;-63
2023/07/07 03:25:07;;;;;;;;;;;;;;;;;;5009707;28;19928;-63
2023/07/07 03:27:33;;;;;;;;;;;;;;;;;;4993190;28;20406;-63
2023/07/07 03:29:59;;;;;;;;;;;;;;;;;;5011518;28;19917;-63
2023/07/07 03:32:25;;;;;;;;;;;;;;;;;;5014480;28;20004;-63
2023/07/07 03:34:51;;;;;;;;;;;;;;;;;;5012025;28;19964;-63
2023/07/07 03:37:17;;;;;;;;;;;;;;;;;;5011464;28;20428;-63
2023/07/07 03:39:42;;;;;;;;;;;;;;;;;;5011555;28;20013;-63
2023/07/07 03:42:08;;;;;;;;;;;;;;;;;;5026114;28;19909;-63
2023/07/07 03:44:34;;;;;;;;;;;;;;;;;;5012803;28;19921;-63
2023/07/07 03:47:00;;;;;;;;;;;;;;;;;;5011875;28;20015;-63
2023/07/07 03:49:26;;;;;;;;;;;;;;;;;;5026988;28;20004;-63
2023/07/07 03:51:52;;;;;;;;;;;;;;;;;;5009590;28;19916;-63
2023/07/07 03:54:18;;;;;;;;;;;;;;;;;;5026847;28;20419;-63
2023/07/07 03:56:44;;;;;;;;;;;;;;;;;;5009585;28;19996;-63
2023/07/07 03:59:10;;;;;;;;;;;;;;;;;;5000246;28;19971;-63
2023/07/07 04:01:36;;;;;;;;;;;;;;;;;;4980616;28;20008;-63
2023/07/07 04:04:02;;;;;;;;;;;;;;;;;;4998747;28;20014;-63
2023/07/07 04:06:27;;;;;;;;;;;;;;;;;;5009417;28;19948;-63
2023/07/07 04:08:53;;;;;;;;;;;;;;;;;;5008069;28;19960;-63
2023/07/07 04:11:19;;;;;;;;;;;;;;;;;;5006527;28;19909;-63
2023/07/07 04:13:45;;;;;;;;;;;;;;;;;;4997197;28;19936;-63
2023/07/07 04:16:11;;;;;;;;;;;;;;;;;;5013377;28;19976;-63
2023/07/07 04:18:37;;;;;;;;;;;;;;;;;;5009881;28;20508;-63
2023/07/07 04:21:05;;;;;;;;;;;;;;;;;;5009091;28;19992;-63
2023/07/07 04:23:31;;;;;;;;;;;;;;;;;;5013602;28;20341;-63
2023/07/07 04:25:57;;;;;;;;;;;;;;;;;;5011187;28;20044;-63
2023/07/07 04:28:23;;;;;;;;;;;;;;;;;;5000767;28;19975;-63
2023/07/07 04:30:49;;;;;;;;;;;;;;;;;;5011838;28;21308;-63
2023/07/07 04:33:15;;;;;;;;;;;;;;;;;;5010120;28;19996;-63
2023/07/07 04:35:40;;;;;;;;;;;;;;;;;;5020275;28;19917;-63
2023/07/07 04:38:06;;;;;;;;;;;;;;;;;;5008958;28;20392;-63
2023/07/07 04:40:33;;;;;;;;;;;;;;;;;;5006239;28;19937;-65
2023/07/07 04:42:58;;;;;;;;;;;;;;;;;;5009378;28;19917;-63
2023/07/07 04:45:24;;;;;;;;;;;;;;;;;;5006453;28;19922;-63
2023/07/07 04:47:50;;;;;;;;;;;;;;;;;;5007848;28;19963;-63
2023/07/07 04:50:16;;;;;;;;;;;;;;;;;;5009895;28;19917;-63
2023/07/07 04:52:42;;;;;;;;;;;;;;;;;;5006966;28;19913;-63
2023/07/07 04:55:08;;;;;;;;;;;;;;;;;;5010848;28;20583;-63
2023/07/07 04:57:34;;;;;;;;;;;;;;;;;;4990771;28;20004;-63
2023/07/07 05:00:00;;;;;;;;;;;;;;;;;;5006665;28;20031;-63
2023/07/07 05:02:26;;;;;;;;;;;;;;;;;;5003130;28;19972;-63
2023/07/07 05:04:52;;;;;;;;;;;;;;;;;;5019247;28;19964;-63
2023/07/07 05:07:18;;;;;;;;;;;;;;;;;;5007924;28;20062;-63
2023/07/07 05:09:44;;;;;;;;;;;;;;;;;;5009083;28;19917;-63
2023/07/07 05:12:10;;;;;;;;;;;;;;;;;;5016617;28;19936;-63
2023/07/07 05:14:35;;;;;;;;;;;;;;;;;;5009772;28;19913;-63
2023/07/07 05:17:01;;;;;;;;;;;;;;;;;;5001259;28;19917;-63
2023/07/07 05:19:27;;;;;;;;;;;;;;;;;;5014474;28;19925;-63
2023/07/07 05:21:53;;;;;;;;;;;;;;;;;;5019915;28;19956;-63
2023/07/07 05:24:19;;;;;;;;;;;;;;;;;;4996733;28;20291;-63
2023/07/07 05:26:45;;;;;;;;;;;;;;;;;;5010669;28;19914;-63
2023/07/07 05:29:11;;;;;;;;;;;;;;;;;;5009723;28;20428;-63
2023/07/07 05:31:37;;;;;;;;;;;;;;;;;;5011776;28;19915;-64
2023/07/07 05:34:03;;;;;;;;;;;;;;;;;;5005143;28;20851;-63
2023/07/07 05:36:29;;;;;;;;;;;;;;;;;;5012221;28;19925;-63
2023/07/07 05:38:55;;;;;;;;;;;;;;;;;;5009210;28;19972;-63
2023/07/07 05:41:20;;;;;;;;;;;;;;;;;;5021334;28;19913;-63
2023/07/07 05:43:46;;;;;;;;;;;;;;;;;;5010555;28;19964;-63
2023/07/07 05:46:12;;;;;;;;;;;;;;;;;;4985389;28;20036;-63
2023/07/07 05:48:38;;;;;;;;;;;;;;;;;;5011758;28;19949;-63
2023/07/07 05:51:04;;;;;;;;;;;;;;;;;;5014193;28;19957;-63
2023/07/07 05:53:30;;;;;;;;;;;;;;;;;;5016734;28;19928;-63
2023/07/07 05:55:56;;;;;;;;;;;;;;;;;;5012373;28;19949;-63
2023/07/07 05:58:22;;;;;;;;;;;;;;;;;;5014631;28;19964;-63
2023/07/07 06:00:48;;;;;;;;;;;;;;;;;;5014673;28;20450;-62
2023/07/07 06:03:14;;;;;;;;;;;;;;;;;;5011219;28;19917;-63
2023/07/07 06:05:40;;;;;;;;;;;;;;;;;;5011172;28;20396;-63
2023/07/07 06:08:06;;;;;;;;;;;;;;;;;;5012815;28;19971;-63
2023/07/07 06:10:32;;;;;;;;;;;;;;;;;;5011719;28;19960;-63
2023/07/07 06:12:58;;;;;;;;;;;;;;;;;;5012389;28;19917;-63
2023/07/07 06:15:24;;;;;;;;;;;;;;;;;;5013755;28;20000;-63
2023/07/07 06:17:50;;;;;;;;;;;;;;;;;;5008224;28;20181;-63
2023/07/07 06:20:16;;;;;;;;;;;;;;;;;;5003495;28;19925;-62
2023/07/07 06:22:42;;;;;;;;;;;;;;;;;;5008726;28;20334;-64
2023/07/07 06:25:08;;;;;;;;;;;;;;;;;;5008833;28;19956;-63
2023/07/07 06:27:34;;;;;;;;;;;;;;;;;;5007027;28;20445;-63
2023/07/07 06:30:00;;;;;;;;;;;;;;;;;;5007694;28;19917;-63
2023/07/07 06:32:26;;;;;;;;;;;;;;;;;;5008772;28;20355;-63
2023/07/07 06:34:51;;;;;;;;;;;;;;;;;;5026205;28;19916;-63
2023/07/07 06:37:17;;;;;;;;;;;;;;;;;;5005902;28;19918;-63
2023/07/07 06:39:43;;;;;;;;;;;;;;;;;;5013139;28;20432;-63
2023/07/07 06:42:09;;;;;;;;;;;;;;;;;;5011683;28;19953;-63
2023/07/07 06:44:38;;;;;;;;;;;;;;;;;;5008855;28;20400;-63
2023/07/07 06:47:04;;;;;;;;;;;;;;;;;;5008930;28;20013;-62
2023/07/07 06:49:30;;;;;;;;;;;;;;;;;;4993396;28;20387;-63
2023/07/07 06:51:56;;;;;;;;;;;;;;;;;;4995298;28;19937;-63
2023/07/07 06:54:22;;;;;;;;;;;;;;;;;;5012548;28;19909;-63
2023/07/07 06:56:48;;;;;;;;;;;;;;;;;;5012538;28;19909;-63
2023/07/07 06:59:14;;;;;;;;;;;;;;;;;;5011895;28;19928;-63
2023/07/07 07:01:40;;;;;;;;;;;;;;;;;;5008143;28;19944;-64
2023/07/07 07:04:06;;;;;;;;;;;;;;;;;;5011461;28;20403;-63
2023/07/07 07:06:31;;;;;;;;;;;;;;;;;;5004118;28;19963;-63
2023/07/07 07:08:57;;;;;;;;;;;;;;;;;;5007371;28;19917;-63
2023/07/07 07:11:23;;;;;;;;;;;;;;;;;;4990262;28;19967;-63
2023/07/07 07:13:49;;;;;;;;;;;;;;;;;;5016546;28;19909;-63
2023/07/07 07:16:15;;;;;;;;;;;;;;;;;;5024748;28;19932;-63
2023/07/07 07:18:41;;;;;;;;;;;;;;;;;;5010145;28;20033;-63
2023/07/07 07:21:07;;;;;;;;;;;;;;;;;;5011826;28;19917;-63
2023/07/07 07:23:33;;;;;;;;;;;;;;;;;;5008528;28;19955;-63
2023/07/07 07:26:01;;;;;;;;;;;;;;;;;;5012368;28;21405;-63
2023/07/07 07:28:26;;;;;;;;;;;;;;;;;;5006635;28;19949;-63
2023/07/07 07:30:52;;;;;;;;;;;;;;;;;;5015265;28;19964;-63
2023/07/07 07:33:19;;;;;;;;;;;;;;;;;;5019566;28;19953;-63
2023/07/07 07:35:45;;;;;;;;;;;;;;;;;;5010934;28;19922;-62
2023/07/07 07:38:11;;;;;;;;;;;;;;;;;;5011975;28;19923;-62
2023/07/07 07:40:37;;;;;;;;;;;;;;;;;;4985980;28;19948;-62
2023/07/07 07:43:03;;;;;;;;;;;;;;;;;;5010706;28;20391;-62
2023/07/07 07:45:29;;;;;;;;;;;;;;;;;;5006256;28;19927;-61
2023/07/07 07:47:55;;;;;;;;;;;;;;;;;;5010157;28;19921;-62
2023/07/07 07:50:21;;;;;;;;;;;;;;;;;;5001646;28;20028;-61
2023/07/07 07:52:46;;;;;;;;;;;;;;;;;;5003363;28;19966;-62
2023/07/07 07:55:14;;;;;;;;;;;;;;;;;;4999139;28;20382;-61
2023/07/07 07:57:40;;;;;;;;;;;;;;;;;;5004826;28;20016;-61
2023/07/07 08:00:06;;;;;;;;;;;;;;;;;;5013876;28;20001;-62
2023/07/07 08:02:32;;;;;;;;;;;;;;;;;;5001680;28;19914;-64
2023/07/07 08:04:57;;;;;;;;;;;;;;;;;;4998179;28;19972;-62
2023/07/07 08:07:25;;;;;;;;;;;;;;;;;;4999333;28;19914;-61
2023/07/07 08:09:51;;;;;;;;;;;;;;;;;;5004709;28;19924;-63
2023/07/07 08:12:17;;;;;;;;;;;;;;;;;;5025102;28;19913;-62
2023/07/07 08:14:43;;;;;;;;;;;;;;;;;;5011326;28;20004;-62
2023/07/07 08:17:09;;;;;;;;;;;;;;;;;;5015348;28;19967;-62
2023/07/07 08:19:34;;;;;;;;;;;;;;;;;;5017948;28;20338;-62
2023/07/07 08:22:00;;;;;;;;;;;;;;;;;;5030733;28;19914;-62
2023/07/07 08:24:26;;;;;;;;;;;;;;;;;;5015907;28;19972;-62
2023/07/07 08:26:52;;;;;;;;;;;;;;;;;;5007902;28;20376;-62
2023/07/07 08:29:18;;;;;;;;;;;;;;;;;;5011054;28;19917;-62
2023/07/07 08:31:44;;;;;;;;;;;;;;;;;;5010924;28;19916;-65
2023/07/07 08:34:10;;;;;;;;;;;;;;;;;;5010508;28;20008;-62
2023/07/07 08:36:36;;;;;;;;;;;;;;;;;;5011434;28;19916;-61
2023/07/07 08:39:02;;;;;;;;;;;;;;;;;;5011433;28;19910;-62
2023/07/07 08:41:28;;;;;;;;;;;;;;;;;;5010855;28;20020;-61
2023/07/07 08:43:54;;;;;;;;;;;;;;;;;;5022829;28;19986;-62
2023/07/07 08:46:20;;;;;;;;;;;;;;;;;;5010834;28;19914;-62
2023/07/07 08:48:46;;;;;;;;;;;;;;;;;;5014013;28;19922;-61
2023/07/07 08:51:12;;;;;;;;;;;;;;;;;;5014705;28;19909;-63
2023/07/07 08:53:38;;;;;;;;;;;;;;;;;;5023509;28;19952;-63
2023/07/07 08:56:04;;;;;;;;;;;;;;;;;;5028594;28;20054;-62
2023/07/07 08:58:30;;;;;;;;;;;;;;;;;;5013913;28;19913;-62
2023/07/07 09:00:56;;;;;;;;;;;;;;;;;;5018841;28;19995;-62
2023/07/07 09:03:22;;;;;;;;;;;;;;;;;;5017663;28;19913;-62
2023/07/07 09:05:48;;;;;;;;;;;;;;;;;;5016769;28;19924;-62
2023/07/07 09:08:14;;;;;;;;;;;;;;;;;;5021244;28;19956;-61
2023/07/07 09:10:40;;;;;;;;;;;;;;;;;;5023233;28;19914;-62
2023/07/07 09:13:06;;;;;;;;;;;;;;;;;;4995257;28;20300;-62
2023/07/07 09:15:31;;;;;;;;;;;;;;;;;;5027709;28;19920;-61
2023/07/07 09:17:57;;;;;;;;;;;;;;;;;;5023060;28;19960;-62
2023/07/07 09:20:23;;;;;;;;;;;;;;;;;;5033731;28;20012;-61
2023/07/07 09:22:49;;;;;;;;;;;;;;;;;;5034186;28;19917;-61
2023/07/07 09:25:15;;;;;;;;;;;;;;;;;;5025820;28;19961;-62
2023/07/07 09:27:41;;;;;;;;;;;;;;;;;;5018648;28;19923;-63
2023/07/07 09:30:07;;;;;;;;;;;;;;;;;;5016769;28;20380;-61
2023/07/07 09:32:33;;;;;;;;;;;;;;;;;;5014533;28;19913;-62
2023/07/07 09:34:59;;;;;;;;;;;;;;;;;;5013831;28;19923;-61
2023/07/07 09:37:25;;;;;;;;;;;;;;;;;;5013724;28;19910;-62
2023/07/07 09:39:51;;;;;;;;;;;;;;;;;;5010581;28;20001;-62
2023/07/07 09:42:17;;;;;;;;;;;;;;;;;;5013994;28;20379;-62
2023/07/07 09:44:43;;;;;;;;;;;;;;;;;;5012152;28;19917;-61
2023/07/07 09:47:09;;;;;;;;;;;;;;;;;;5013975;28;20349;-62
2023/07/07 09:49:35;;;;;;;;;;;;;;;;;;5014047;28;19944;-62
2023/07/07 09:52:00;;;;;;;;;;;;;;;;;;5013607;28;19913;-62
2023/07/07 09:54:26;;;;;;;;;;;;;;;;;;5012837;28;20012;-62
2023/07/07 09:56:52;;;;;;;;;;;;;;;;;;5013997;28;19913;-62
2023/07/07 09:59:18;;;;;;;;;;;;;;;;;;5012050;28;19956;-62
2023/07/07 10:01:44;;;;;;;;;;;;;;;;;;5003221;28;19948;-63
2023/07/07 10:04:10;;;;;;;;;;;;;;;;;;5028188;28;19915;-62
2023/07/07 10:06:36;;;;;;;;;;;;;;;;;;5017793;28;20381;-63
2023/07/07 10:09:03;;;;;;;;;;;;;;;;;;5001672;28;19949;-66
2023/07/07 10:11:28;;;;;;;;;;;;;;;;;;5014983;28;19917;-66
2023/07/07 10:13:54;;;;;;;;;;;;;;;;;;5004296;28;20674;-66
2023/07/07 10:16:21;;;;;;;;;;;;;;;;;;5005219;28;20424;-66
2023/07/07 10:18:47;;;;;;;;;;;;;;;;;;4975877;28;19925;-66
2023/07/07 10:21:15;;;;;;;;;;;;;;;;;;4994981;28;19918;-67
2023/07/07 10:23:41;;;;;;;;;;;;;;;;;;5010542;28;20020;-67
2023/07/07 10:26:07;;;;;;;;;;;;;;;;;;5018576;28;20750;-66
2023/07/07 10:28:33;;;;;;;;;;;;;;;;;;5000977;28;19939;-67
2023/07/07 10:30:59;;;;;;;;;;;;;;;;;;5011955;28;20336;-66
2023/07/07 10:33:26;;;;;;;;;;;;;;;;;;5012010;28;19956;-66
2023/07/07 10:35:52;;;;;;;;;;;;;;;;;;5011268;28;19921;-66
2023/07/07 10:38:18;;;;;;;;;;;;;;;;;;5014285;28;19995;-66
2023/07/07 10:40:45;;;;;;;;;;;;;;;;;;5017513;28;19909;-67
2023/07/07 10:43:11;;;;;;;;;;;;;;;;;;5023472;28;20334;-66
2023/07/07 10:45:37;;;;;;;;;;;;;;;;;;5012552;28;19956;-66
2023/07/07 10:48:03;;;;;;;;;;;;;;;;;;5015893;28;19921;-66
2023/07/07 10:50:29;;;;;;;;;;;;;;;;;;5017850;28;19952;-66
2023/07/07 10:52:55;;;;;;;;;;;;;;;;;;5009462;28;20374;-67
2023/07/07 10:55:21;;;;;;;;;;;;;;;;;;5014778;28;19953;-66
2023/07/07 10:57:46;;;;;;;;;;;;;;;;;;5017306;28;19920;-67
2023/07/07 11:00:12;;;;;;;;;;;;;;;;;;5011033;28;20369;-67
2023/07/07 11:02:38;;;;;;;;;;;;;;;;;;5010330;28;19956;-67
2023/07/07 11:05:04;;;;;;;;;;;;;;;;;;5013887;28;19964;-66
2023/07/07 11:07:30;;;;;;;;;;;;;;;;;;5015391;28;20434;-66
2023/07/07 11:09:56;;;;;;;;;;;;;;;;;;5008978;28;19923;-66
2023/07/07 11:12:22;;;;;;;;;;;;;;;;;;5010198;28;19921;-66
2023/07/07 11:14:48;;;;;;;;;;;;;;;;;;5014401;28;20312;-66
2023/07/07 11:17:14;;;;;;;;;;;;;;;;;;5008399;28;19963;-66
2023/07/07 11:19:40;;;;;;;;;;;;;;;;;;5012070;28;19956;-66
2023/07/07 11:22:05;;;;;;;;;;;;;;;;;;5001620;28;19996;-67
2023/07/07 11:24:31;;;;;;;;;;;;;;;;;;5007896;28;19925;-66
2023/07/07 11:26:57;;;;;;;;;;;;;;;;;;5006149;28;20290;-66
2023/07/07 11:29:23;;;;;;;;;;;;;;;;;;5023012;28;19913;-66
2023/07/07 11:31:49;;;;;;;;;;;;;;;;;;5005060;28;19957;-66
2023/07/07 11:34:15;;;;;;;;;;;;;;;;;;5016901;28;19956;-66
2023/07/07 11:36:41;;;;;;;;;;;;;;;;;;5025282;28;20040;-67
2023/07/07 11:39:07;;;;;;;;;;;;;;;;;;5023181;28;19921;-67
2023/07/07 11:41:33;;;;;;;;;;;;;;;;;;5000608;28;19956;-67
2023/07/07 11:43:59;;;;;;;;;;;;;;;;;;5025639;28;19959;-67
2023/07/07 11:46:25;;;;;;;;;;;;;;;;;;5030967;28;19909;-66
2023/07/07 11:48:50;;;;;;;;;;;;;;;;;;5030638;28;20388;-66
2023/07/07 11:51:16;;;;;;;;;;;;;;;;;;5029926;28;19913;-67
2023/07/07 11:53:42;;;;;;;;;;;;;;;;;;5014392;28;19916;-66
2023/07/07 11:56:08;;;;;;;;;;;;;;;;;;5017297;28;20006;-66
2023/07/07 11:58:34;;;;;;;;;;;;;;;;;;5027047;28;19916;-66
2023/07/07 12:01:00;;;;;;;;;;;;;;;;;;5012919;28;19914;-66
2023/07/07 12:03:26;;;;;;;;;;;;;;;;;;5017768;28;19952;-66
2023/07/07 12:05:52;;;;;;;;;;;;;;;;;;5013349;28;19925;-66
2023/07/07 12:08:18;;;;;;;;;;;;;;;;;;5010020;28;19917;-66
2023/07/07 12:10:44;;;;;;;;;;;;;;;;;;5011160;28;19945;-66
2023/07/07 12:13:10;;;;;;;;;;;;;;;;;;5002780;28;19996;-66
2023/07/07 12:15:36;;;;;;;;;;;;;;;;;;4991716;28;19910;-66
2023/07/07 12:18:02;;;;;;;;;;;;;;;;;;4991708;28;19944;-67
2023/07/07 12:20:28;;;;;;;;;;;;;;;;;;5003506;28;19910;-67
2023/07/07 12:22:54;;;;;;;;;;;;;;;;;;5007947;28;19920;-67
2023/07/07 12:25:20;;;;;;;;;;;;;;;;;;5013081;28;19945;-67
2023/07/07 12:27:46;;;;;;;;;;;;;;;;;;5003431;28;19924;-66
2023/07/07 12:30:12;;;;;;;;;;;;;;;;;;5012575;28;19953;-67
2023/07/07 12:32:38;;;;;;;;;;;;;;;;;;5009988;28;20293;-67
2023/07/07 12:35:04;;;;;;;;;;;;;;;;;;5013725;28;19920;-67
2023/07/07 12:37:30;;;;;;;;;;;;;;;;;;5015935;28;20012;-68
2023/07/07 12:39:57;;;;;;;;;;;;;;;;;;5021134;28;20004;-66
2023/07/07 12:42:23;;;;;;;;;;;;;;;;;;5013172;28;19929;-67
2023/07/07 12:44:49;;;;;;;;;;;;;;;;;;5008230;28;19980;-68
2023/07/07 12:47:15;;;;;;;;;;;;;;;;;;5008455;28;19963;-67
2023/07/07 12:49:43;;;;;;;;;;;;;;;;;;5013418;28;19950;-66
2023/07/07 12:52:09;;;;;;;;;;;;;;;;;;5012431;28;19914;-66
2023/07/07 12:54:35;;;;;;;;;;;;;;;;;;5010431;28;20277;-67
2023/07/07 12:57:01;;;;;;;;;;;;;;;;;;5011625;28;20161;-66
2023/07/07 12:59:27;;;;;;;;;;;;;;;;;;5008801;28;19989;-67
2023/07/07 13:01:52;;;;;;;;;;;;;;;;;;5011208;28;20360;-64
2023/07/07 13:04:19;;;;;;;;;;;;;;;;;;5017835;28;19940;-67
2023/07/07 13:06:44;;;;;;;;;;;;;;;;;;5025178;28;20353;-66
2023/07/07 13:09:11;;;;;;;;;;;;;;;;;;5010345;28;19952;-66
2023/07/07 13:11:38;;;;;;;;;;;;;;;;;;5010835;28;20289;-67
2023/07/07 13:14:04;;;;;;;;;;;;;;;;;;5011123;28;19989;-67
2023/07/07 13:16:30;;;;;;;;;;;;;;;;;;5011161;28;19961;-67
2023/07/07 13:18:56;;;;;;;;;;;;;;;;;;5010203;28;19963;-67
2023/07/07 13:21:22;;;;;;;;;;;;;;;;;;5012533;28;20321;-67
2023/07/07 13:23:48;;;;;;;;;;;;;;;;;;5013511;28;20407;-66
2023/07/07 13:26:14;;;;;;;;;;;;;;;;;;5009214;28;19926;-67
2023/07/07 13:28:40;;;;;;;;;;;;;;;;;;5009395;28;19913;-66
2023/07/07 13:31:06;;;;;;;;;;;;;;;;;;5006715;28;20349;-67
2023/07/07 13:33:32;;;;;;;;;;;;;;;;;;5009065;28;19922;-67
2023/07/07 13:35:57;;;;;;;;;;;;;;;;;;5010649;28;20392;-67
2023/07/07 13:38:25;;;;;;;;;;;;;;;;;;5011966;28;19918;-67
2023/07/07 13:40:51;;;;;;;;;;;;;;;;;;5011989;28;19925;-67
2023/07/07 13:43:16;;;;;;;;;;;;;;;;;;4995791;28;19957;-67
2023/07/07 13:45:42;;;;;;;;;;;;;;;;;;5012351;28;19965;-67
2023/07/07 13:48:08;;;;;;;;;;;;;;;;;;5013422;28;19913;-67
2023/07/07 13:50:34;;;;;;;;;;;;;;;;;;5014104;28;20011;-67
2023/07/07 13:53:00;;;;;;;;;;;;;;;;;;5015587;28;20023;-66
2023/07/07 13:55:26;;;;;;;;;;;;;;;;;;5014545;28;19960;-67
2023/07/07 13:57:52;;;;;;;;;;;;;;;;;;5008715;28;20004;-66
2023/07/07 14:00:18;;;;;;;;;;;;;;;;;;5016338;28;19917;-66
2023/07/07 14:02:44;;;;;;;;;;;;;;;;;;5013014;28;19955;-67
2023/07/07 14:05:10;;;;;;;;;;;;;;;;;;5006614;28;19983;-66
2023/07/07 14:07:36;;;;;;;;;;;;;;;;;;5022357;28;19972;-66
2023/07/07 14:10:01;;;;;;;;;;;;;;;;;;5021352;28;20000;-66
2023/07/07 14:12:27;;;;;;;;;;;;;;;;;;5018019;28;20019;-67
2023/07/07 14:14:53;;;;;;;;;;;;;;;;;;5019489;28;19918;-67
2023/07/07 14:17:19;;;;;;;;;;;;;;;;;;5014571;28;19959;-66
2023/07/07 14:19:45;;;;;;;;;;;;;;;;;;5017944;28;19917;-67
2023/07/07 14:22:11;;;;;;;;;;;;;;;;;;5018003;28;19972;-68
2023/07/07 14:24:37;;;;;;;;;;;;;;;;;;4998853;28;20600;-66
2023/07/07 14:27:03;;;;;;;;;;;;;;;;;;5014750;28;19921;-67
2023/07/07 14:29:29;;;;;;;;;;;;;;;;;;5023732;28;19919;-66
2023/07/07 14:31:55;;;;;;;;;;;;;;;;;;4994678;28;19937;-67
2023/07/07 14:34:21;;;;;;;;;;;;;;;;;;5012727;28;19960;-67
2023/07/07 14:36:50;;;;;;;;;;;;;;;;;;5012957;28;19909;-67
2023/07/07 14:39:16;;;;;;;;;;;;;;;;;;5011661;28;19984;-67
2023/07/07 14:41:42;;;;;;;;;;;;;;;;;;5008062;28;20012;-67
2023/07/07 14:44:08;;;;;;;;;;;;;;;;;;5011929;28;20374;-67
2023/07/07 14:46:34;;;;;;;;;;;;;;;;;;5007328;28;19999;-67
2023/07/07 14:48:59;;;;;;;;;;;;;;;;;;5009360;28;20278;-67
2023/07/07 14:51:25;;;;;;;;;;;;;;;;;;5005591;28;19909;-67
2023/07/07 14:53:51;;;;;;;;;;;;;;;;;;5007484;28;19964;-67
2023/07/07 14:56:17;;;;;;;;;;;;;;;;;;5008349;28;19913;-67
2023/07/07 14:58:43;;;;;;;;;;;;;;;;;;4999947;28;19964;-67
2023/07/07 15:01:09;;;;;;;;;;;;;;;;;;5008816;28;19917;-67
2023/07/07 15:03:35;;;;;;;;;;;;;;;;;;5004254;28;19996;-67
2023/07/07 15:06:01;;;;;;;;;;;;;;;;;;5007741;28;20305;-67
2023/07/07 15:08:29;;;;;;;;;;;;;;;;;;5007986;28;19918;-67
2023/07/07 15:10:55;;;;;;;;;;;;;;;;;;5009383;28;19941;-67
2023/07/07 15:13:20;;;;;;;;;;;;;;;;;;5015388;28;20762;-66
2023/07/07 15:15:46;;;;;;;;;;;;;;;;;;5015743;28;20008;-66
2023/07/07 15:18:14;;;;;;;;;;;;;;;;;;5013641;28;19917;-66
2023/07/07 15:20:40;;;;;;;;;;;;;;;;;;5006407;28;19914;-66
2023/07/07 15:23:06;;;;;;;;;;;;;;;;;;4999936;28;19920;-66
2023/07/07 15:25:32;;;;;;;;;;;;;;;;;;5022446;28;19976;-66
2023/07/07 15:27:57;;;;;;;;;;;;;;;;;;5014710;28;19940;-67
2023/07/07 15:30:23;;;;;;;;;;;;;;;;;;5017600;28;20321;-66
2023/07/07 15:32:49;;;;;;;;;;;;;;;;;;5010575;28;19920;-66
2023/07/07 15:35:15;;;;;;;;;;;;;;;;;;4990987;28;19996;-67
2023/07/07 15:37:41;;;;;;;;;;;;;;;;;;5004195;28;19986;-66
2023/07/07 15:40:07;;;;;;;;;;;;;;;;;;5010450;28;19917;-66
2023/07/07 15:42:33;;;;;;;;;;;;;;;;;;5012274;28;19989;-66
2023/07/07 15:44:59;;;;;;;;;;;;;;;;;;5010642;28;19917;-66
2023/07/07 15:47:25;;;;;;;;;;;;;;;;;;5020879;28;19940;-66
2023/07/07 15:49:51;;;;;;;;;;;;;;;;;;5005635;28;20393;-67
2023/07/07 15:52:16;;;;;;;;;;;;;;;;;;5008923;28;20031;-66
2023/07/07 15:54:42;;;;;;;;;;;;;;;;;;5007174;28;20274;-66
2023/07/07 15:57:09;;;;;;;;;;;;;;;;;;5008794;28;19920;-66
2023/07/07 15:59:35;;;;;;;;;;;;;;;;;;5001316;28;20385;-66
2023/07/07 16:02:01;;;;;;;;;;;;;;;;;;5011256;28;19979;-67
2023/07/07 16:04:26;;;;;;;;;;;;;;;;;;5013675;28;19913;-66
2023/07/07 16:06:53;;;;;;;;;;;;;;;;;;5015541;28;20337;-66
2023/07/07 16:09:19;;;;;;;;;;;;;;;;;;5017661;28;20018;-66
2023/07/07 16:11:45;;;;;;;;;;;;;;;;;;5023246;28;20109;-66
2023/07/07 16:14:10;;;;;;;;;;;;;;;;;;5006347;28;20382;-66
2023/07/07 16:16:36;;;;;;;;;;;;;;;;;;5009167;28;19977;-66
2023/07/07 16:19:02;;;;;;;;;;;;;;;;;;5010054;28;19961;-67
2023/07/07 16:21:28;;;;;;;;;;;;;;;;;;5026288;28;19996;-66
2023/07/07 16:23:54;;;;;;;;;;;;;;;;;;5011147;28;20276;-67
2023/07/07 16:26:20;;;;;;;;;;;;;;;;;;5011289;28;19996;-66
2023/07/07 16:28:46;;;;;;;;;;;;;;;;;;5009193;28;20139;-66
2023/07/07 16:31:12;;;;;;;;;;;;;;;;;;5008461;28;20003;-67
2023/07/07 16:33:38;;;;;;;;;;;;;;;;;;4992987;28;20250;-66
2023/07/07 16:36:04;;;;;;;;;;;;;;;;;;5006111;28;20020;-66